createdAt,value
2022-09-28T00:01:20.938Z,6.53
2022-09-28T00:03:50.691Z,4.35
2022-09-28T00:06:20.473Z,6.15
2022-09-28T00:08:50.339Z,4.00
2022-09-28T00:11:19.090Z,4.60
2022-09-28T00:13:51.604Z,4.07
2022-09-28T00:16:21.568Z,6.53
2022-09-28T00:18:51.493Z,4.25
2022-09-28T00:21:24.545Z,6.18
2022-09-28T00:24:12.648Z,7.43
2022-09-28T00:26:41.359Z,7.15
2022-09-28T00:29:17.950Z,8.48
2022-09-28T00:31:45.791Z,7.45
2022-09-28T00:34:13.405Z,6.72
2022-09-28T00:36:44.431Z,5.25
2022-09-28T00:39:14.929Z,5.35
2022-09-28T00:41:42.719Z,6.10
2022-09-28T00:44:38.925Z,4.97
2022-09-28T00:47:17.798Z,6.32
2022-09-28T00:50:31.194Z,7.50
2022-09-28T00:53:13.276Z,3.67
2022-09-28T00:55:48.778Z,6.97
2022-09-28T00:58:25.364Z,4.97
2022-09-28T01:00:55.471Z,7.53
2022-09-28T01:03:22.878Z,6.45
2022-09-28T01:05:51.882Z,6.65
2022-09-28T01:08:21.982Z,3.97
2022-09-28T01:10:50.003Z,7.55
2022-09-28T01:13:21.862Z,5.13
2022-09-28T01:16:23.610Z,6.03
2022-09-28T01:19:10.516Z,5.10
2022-09-28T01:22:19.489Z,7.10
2022-09-28T01:24:49.002Z,4.90
2022-09-28T01:27:25.259Z,5.15
2022-09-28T01:30:02.016Z,5.78
2022-09-28T01:32:55.357Z,4.82
2022-09-28T01:35:37.182Z,4.30
2022-09-28T01:38:14.910Z,6.13
2022-09-28T01:40:42.754Z,8.52
2022-09-28T01:43:16.242Z,3.78
2022-09-28T01:45:54.672Z,3.92
2022-09-28T01:48:30.371Z,4.85
2022-09-28T01:51:02.799Z,6.07
2022-09-28T01:53:40.509Z,6.60
2022-09-28T01:56:28.457Z,6.18
2022-09-28T01:59:06.680Z,7.53
2022-09-28T02:01:41.050Z,5.88
2022-09-28T02:04:17.157Z,6.97
2022-09-28T02:06:55.663Z,4.38
2022-09-28T02:09:33.036Z,3.88
2022-09-28T02:12:10.225Z,4.75
2022-09-28T02:14:40.756Z,8.70
2022-09-28T02:17:09.889Z,5.72
2022-09-28T02:19:37.752Z,5.75
2022-09-28T02:22:25.322Z,4.55
2022-09-28T02:25:01.658Z,3.47
2022-09-28T02:27:34.491Z,4.43
2022-09-28T02:30:03.122Z,4.72
2022-09-28T02:32:35.487Z,3.83
2022-09-28T02:35:02.995Z,2.75
2022-09-28T02:37:30.344Z,6.03
2022-09-28T02:39:57.526Z,4.47
2022-09-28T02:42:34.003Z,4.53
2022-09-28T02:45:28.678Z,6.40
2022-09-28T02:48:06.698Z,3.17
2022-09-28T02:50:33.988Z,5.13
2022-09-28T02:53:37.200Z,2.85
2022-09-28T02:56:29.210Z,5.65
2022-09-28T02:59:08.362Z,7.97
2022-09-28T03:01:50.774Z,5.43
2022-09-28T03:04:34.697Z,5.43
2022-09-28T03:07:15.040Z,4.03
2022-09-28T03:09:54.560Z,4.32
2022-09-28T03:12:24.802Z,5.47
2022-09-28T03:15:14.280Z,5.03
2022-09-28T03:17:42.586Z,4.68
2022-09-28T03:20:10.856Z,7.40
2022-09-28T03:22:38.626Z,4.20
2022-09-28T03:25:08.023Z,4.57
2022-09-28T03:27:38.925Z,3.67
2022-09-28T03:30:08.235Z,2.90
2022-09-28T03:32:36.066Z,1.92
2022-09-28T03:35:06.527Z,3.92
2022-09-28T03:37:33.905Z,5.35
2022-09-28T03:40:01.494Z,4.60
2022-09-28T03:42:28.994Z,4.20
2022-09-28T03:44:56.981Z,7.38
2022-09-28T03:47:24.297Z,6.15
2022-09-28T03:49:51.426Z,5.80
2022-09-28T03:52:18.560Z,7.55
2022-09-28T03:54:49.090Z,4.70
2022-09-28T03:57:16.824Z,6.05
2022-09-28T03:59:44.420Z,3.05
2022-09-28T04:02:11.602Z,3.88
2022-09-28T04:04:38.839Z,2.90
2022-09-28T04:07:06.087Z,6.07
2022-09-28T04:09:33.330Z,3.05
2022-09-28T04:12:04.280Z,3.00
2022-09-28T04:14:32.933Z,6.70
2022-09-28T04:17:00.112Z,4.43
2022-09-28T04:19:28.682Z,5.60
2022-09-28T04:22:16.422Z,4.70
2022-09-28T04:24:43.873Z,5.05
2022-09-28T04:27:29.193Z,7.40
2022-09-28T04:29:56.447Z,4.28
2022-09-28T04:32:23.692Z,4.55
2022-09-28T04:34:52.062Z,6.63
2022-09-28T04:37:19.335Z,5.97
2022-09-28T04:39:48.613Z,3.05
2022-09-28T04:42:19.291Z,5.28
2022-09-28T04:44:49.101Z,3.70
2022-09-28T04:47:16.979Z,5.65
2022-09-28T04:49:59.337Z,7.80
2022-09-28T04:54:59.559Z,5.13
2022-09-28T04:57:26.909Z,7.55
2022-09-28T04:59:55.126Z,4.75
2022-09-28T05:02:22.336Z,4.38
2022-09-28T05:05:18.914Z,6.15
2022-09-28T05:08:07.106Z,3.83
2022-09-28T05:10:35.102Z,5.50
2022-09-28T05:13:02.740Z,5.10
2022-09-28T05:15:31.247Z,9.35
2022-09-28T05:17:58.676Z,5.18
2022-09-28T05:20:42.056Z,3.42
2022-09-28T05:23:12.956Z,5.68
2022-09-28T05:25:42.959Z,6.28
2022-09-28T05:28:26.389Z,5.53
2022-09-28T05:31:17.305Z,6.03
2022-09-28T05:34:10.586Z,7.07
2022-09-28T05:36:40.259Z,8.88
2022-09-28T05:39:07.697Z,8.25
2022-09-28T05:41:34.933Z,6.50
2022-09-28T05:44:02.308Z,7.18
2022-09-28T05:46:30.703Z,6.15
2022-09-28T05:49:00.685Z,5.13
2022-09-28T05:51:28.501Z,4.22
2022-09-28T05:53:56.413Z,5.15
2022-09-28T05:56:26.085Z,6.38
2022-09-28T05:58:53.353Z,5.00
2022-09-28T06:01:22.922Z,9.50
2022-09-28T06:03:50.285Z,7.95
2022-09-28T06:06:19.955Z,10.20
2022-09-28T06:08:48.725Z,6.72
2022-09-28T06:11:36.244Z,4.35
2022-09-28T06:14:09.848Z,5.43
2022-09-28T06:16:40.477Z,6.32
2022-09-28T06:19:12.485Z,10.05
2022-09-28T06:21:59.661Z,7.68
2022-09-28T06:24:27.742Z,8.13
2022-09-28T06:26:54.811Z,4.85
2022-09-28T06:29:22.984Z,13.65
2022-09-28T06:31:50.370Z,7.03
2022-09-28T06:34:19.277Z,5.78
2022-09-28T06:36:46.601Z,7.72
2022-09-28T06:39:14.145Z,7.60
2022-09-28T06:41:42.039Z,9.00
2022-09-28T06:44:15.397Z,7.78
2022-09-28T06:47:01.488Z,6.90
2022-09-28T06:49:41.509Z,11.60
2022-09-28T06:55:33.081Z,7.18
2022-09-28T06:58:05.342Z,10.07
2022-09-28T07:00:36.421Z,7.38
2022-09-28T07:03:08.625Z,7.47
2022-09-28T07:05:54.299Z,10.23
2022-09-28T07:08:49.466Z,8.98
2022-09-28T07:12:00.484Z,7.65
2022-09-28T07:14:47.732Z,6.53
2022-09-28T07:17:16.803Z,4.60
2022-09-28T07:19:44.716Z,6.40
2022-09-28T07:22:18.732Z,7.57
2022-09-28T07:24:48.511Z,7.15
2022-09-28T07:27:44.397Z,10.32
2022-09-28T07:30:33.583Z,6.35
2022-09-28T07:33:06.532Z,8.25
2022-09-28T07:38:23.029Z,4.00
2022-09-28T07:41:08.851Z,6.70
2022-09-28T07:43:41.893Z,10.55
2022-09-28T07:46:13.428Z,4.88
2022-09-28T07:48:49.733Z,4.40
2022-09-28T07:51:24.797Z,8.95
2022-09-28T07:54:10.597Z,4.30
2022-09-28T07:56:50.860Z,4.93
2022-09-28T07:59:40.477Z,5.85
2022-09-28T08:02:41.137Z,5.90
2022-09-28T08:05:10.226Z,5.65
2022-09-28T08:07:38.500Z,8.07
2022-09-28T08:10:09.246Z,3.38
2022-09-28T08:12:59.186Z,5.40
2022-09-28T08:15:38.420Z,11.50
2022-09-28T08:18:15.194Z,8.43
2022-09-28T08:21:01.655Z,8.25
2022-09-28T08:23:28.970Z,6.55
2022-09-28T08:25:56.053Z,6.30
2022-09-28T08:28:25.311Z,6.15
2022-09-28T08:31:01.752Z,9.30
2022-09-28T08:33:31.869Z,7.50
2022-09-28T08:36:17.286Z,5.05
2022-09-28T08:39:03.837Z,8.63
2022-09-28T08:42:02.928Z,4.53
2022-09-28T08:45:08.326Z,4.60
2022-09-28T08:48:39.845Z,5.68
2022-09-28T08:51:33.860Z,5.93
2022-09-28T08:54:24.776Z,8.63
2022-09-28T08:56:55.950Z,5.82
2022-09-28T08:59:36.392Z,9.02
2022-09-28T09:02:20.207Z,4.63
2022-09-28T09:04:49.471Z,5.40
2022-09-28T09:07:34.262Z,6.38
2022-09-28T09:10:34.306Z,4.93
2022-09-28T09:16:12.160Z,5.30
2022-09-28T09:19:39.585Z,7.03
2022-09-28T09:22:27.951Z,6.00
2022-09-28T09:25:21.073Z,5.25
2022-09-28T09:28:23.344Z,2.92
2022-09-28T09:31:20.705Z,9.27
2022-09-28T09:34:09.355Z,6.78
2022-09-28T09:37:18.040Z,5.93
2022-09-28T09:40:30.665Z,4.90
2022-09-28T09:43:47.209Z,7.35
2022-09-28T09:47:08.434Z,4.10
2022-09-28T09:50:10.427Z,6.95
2022-09-28T09:52:55.144Z,5.70
2022-09-28T09:55:33.134Z,5.25
2022-09-28T09:58:21.937Z,8.02
2022-09-28T10:00:59.777Z,8.93
2022-09-28T10:03:48.887Z,4.18
2022-09-28T10:06:27.606Z,5.85
2022-09-28T10:09:05.564Z,4.32
2022-09-28T10:11:50.335Z,6.88
2022-09-28T10:14:22.996Z,6.43
2022-09-28T10:17:02.789Z,6.80
2022-09-28T10:19:48.480Z,7.10
2022-09-28T10:22:34.455Z,5.93
2022-09-28T10:25:12.967Z,5.28
2022-09-28T10:27:46.277Z,7.40
2022-09-28T10:30:19.297Z,5.00
2022-09-28T10:32:49.128Z,4.93
2022-09-28T10:35:29.972Z,5.00
2022-09-28T10:38:06.419Z,6.57
2022-09-28T10:40:58.736Z,6.53
2022-09-28T10:43:52.059Z,4.78
2022-09-28T10:46:24.435Z,4.57
2022-09-28T10:49:18.446Z,5.18
2022-09-28T10:51:54.997Z,4.70
2022-09-28T10:54:28.495Z,5.47
2022-09-28T10:56:59.321Z,4.93
2022-09-28T10:59:52.620Z,6.05
2022-09-28T11:02:40.362Z,4.15
2022-09-28T11:05:27.248Z,7.53
2022-09-28T11:08:07.499Z,6.03
2022-09-28T11:10:43.001Z,5.38
2022-09-28T11:13:14.773Z,3.23
2022-09-28T11:15:47.716Z,3.33
2022-09-28T11:18:31.720Z,4.43
2022-09-28T11:21:15.908Z,5.50
2022-09-28T11:24:08.827Z,3.97
2022-09-28T11:26:43.910Z,7.72
2022-09-28T11:29:46.349Z,4.55
2022-09-28T11:32:44.696Z,6.45
2022-09-28T11:35:32.284Z,5.85
2022-09-28T11:38:32.287Z,6.65
2022-09-28T11:41:37.703Z,4.80
2022-09-28T11:44:25.432Z,3.25
2022-09-28T11:47:10.248Z,5.53
2022-09-28T11:49:59.097Z,6.80
2022-09-28T11:52:48.882Z,11.18
2022-09-28T11:55:22.269Z,7.57
2022-09-28T11:57:57.720Z,6.68
2022-09-28T12:00:25.778Z,4.55
2022-09-28T12:03:18.310Z,6.30
2022-09-28T12:05:52.300Z,4.18
2022-09-28T12:08:27.806Z,12.05
2022-09-28T12:11:19.664Z,2.92
2022-09-28T12:14:15.728Z,6.70
2022-09-28T12:17:08.493Z,4.40
2022-09-28T12:20:03.302Z,4.65
2022-09-28T12:22:37.512Z,6.07
2022-09-28T12:25:10.641Z,5.03
2022-09-28T12:27:57.185Z,5.28
2022-09-28T12:30:29.315Z,10.13
2022-09-28T12:33:05.840Z,3.25
2022-09-28T12:35:57.922Z,5.15
2022-09-28T12:39:17.635Z,5.20
2022-09-28T12:41:53.205Z,7.15
2022-09-28T12:44:39.292Z,5.90
2022-09-28T12:47:24.914Z,7.22
2022-09-28T12:53:26.614Z,6.38
2022-09-28T12:56:04.217Z,4.88
2022-09-28T12:59:01.752Z,7.30
2022-09-28T13:01:40.939Z,5.03
2022-09-28T13:04:26.601Z,6.78
2022-09-28T13:07:03.519Z,6.40
2022-09-28T13:10:05.245Z,5.25
2022-09-28T13:13:05.245Z,4.75
2022-09-28T13:16:08.035Z,5.38
2022-09-28T13:18:45.694Z,5.45
2022-09-28T13:21:18.760Z,8.35
2022-09-28T13:23:48.939Z,5.72
2022-09-28T13:26:37.174Z,4.80
2022-09-28T13:29:19.880Z,8.52
2022-09-28T13:31:51.817Z,5.97
2022-09-28T13:34:22.870Z,5.30
2022-09-28T13:37:09.236Z,6.68
2022-09-28T13:39:45.643Z,10.60
2022-09-28T13:42:32.001Z,6.40
2022-09-28T13:45:23.333Z,7.32
2022-09-28T13:48:12.434Z,5.35
2022-09-28T13:51:03.211Z,5.50
2022-09-28T13:54:13.181Z,4.93
2022-09-28T13:57:01.720Z,6.25
2022-09-28T13:59:30.722Z,3.83
2022-09-28T14:02:14.264Z,6.50
2022-09-28T14:04:55.392Z,6.80
2022-09-28T14:07:45.566Z,7.95
2022-09-28T14:10:52.016Z,5.43
2022-09-28T14:13:40.992Z,4.15
2022-09-28T14:16:24.670Z,3.83
2022-09-28T14:19:01.561Z,4.10
2022-09-28T14:22:03.120Z,4.47
2022-09-28T14:24:39.985Z,5.10
2022-09-28T14:27:35.826Z,4.15
2022-09-28T14:30:28.647Z,4.95
2022-09-28T14:32:58.827Z,5.28
2022-09-28T14:35:39.661Z,6.00
2022-09-28T14:38:31.911Z,4.05
2022-09-28T14:41:11.668Z,5.45
2022-09-28T14:43:45.209Z,4.97
2022-09-28T14:46:15.500Z,6.68
2022-09-28T14:48:53.730Z,7.47
2022-09-28T14:51:31.226Z,8.32
2022-09-28T14:54:03.361Z,9.18
2022-09-28T14:56:40.179Z,10.52
2022-09-28T14:59:17.568Z,5.47
2022-09-28T15:01:54.086Z,13.70
2022-09-28T15:04:23.764Z,6.10
2022-09-28T15:06:52.499Z,7.57
2022-09-28T15:09:28.919Z,5.47
2022-09-28T15:12:25.659Z,6.20
2022-09-28T15:15:01.610Z,4.35
2022-09-28T15:17:39.231Z,6.97
2022-09-28T15:20:26.325Z,4.50
2022-09-28T15:22:58.995Z,7.93
2022-09-28T15:25:29.013Z,11.57
2022-09-28T15:28:08.313Z,7.60
2022-09-28T15:30:36.785Z,5.13
2022-09-28T15:33:24.016Z,6.50
2022-09-28T15:36:01.943Z,10.60
2022-09-28T15:38:31.495Z,5.22
2022-09-28T15:41:02.903Z,6.53
2022-09-28T15:43:37.403Z,7.88
2022-09-28T15:46:18.603Z,7.53
2022-09-28T15:48:53.832Z,10.32
2022-09-28T15:51:22.477Z,8.00
2022-09-28T15:54:03.010Z,8.88
2022-09-28T15:56:31.269Z,6.78
2022-09-28T15:59:23.471Z,8.88
2022-09-28T16:02:09.877Z,8.13
2022-09-28T16:04:55.438Z,7.55
2022-09-28T16:07:55.840Z,7.95
2022-09-28T16:10:34.633Z,8.18
2022-09-28T16:13:15.723Z,11.70
2022-09-28T16:15:43.335Z,9.70
2022-09-28T16:18:20.471Z,10.10
2022-09-28T16:20:51.188Z,11.60
2022-09-28T16:23:31.362Z,9.55
2022-09-28T16:26:02.322Z,7.63
2022-09-28T16:28:45.971Z,8.30
2022-09-28T16:31:13.331Z,11.52
2022-09-28T16:33:46.946Z,8.27
2022-09-28T16:36:17.396Z,11.40
2022-09-28T16:38:45.781Z,11.60
2022-09-28T16:41:15.459Z,7.35
2022-09-28T16:43:42.614Z,12.13
2022-09-28T16:46:13.473Z,13.38
2022-09-28T16:48:49.012Z,11.10
2022-09-28T16:51:20.998Z,17.17
2022-09-28T16:54:07.305Z,10.38
2022-09-28T16:56:36.623Z,9.50
2022-09-28T16:59:04.890Z,9.40
2022-09-28T17:01:32.284Z,13.50
2022-09-28T17:03:59.468Z,11.07
2022-09-28T17:06:27.640Z,13.35
2022-09-28T17:08:58.601Z,9.55
2022-09-28T17:11:25.865Z,7.90
2022-09-28T17:13:57.025Z,10.05
2022-09-28T17:16:49.740Z,11.10
2022-09-28T17:19:24.962Z,11.55
2022-09-28T17:21:53.380Z,10.02
2022-09-28T17:24:21.144Z,11.02
2022-09-28T17:26:51.179Z,7.05
2022-09-28T17:29:19.311Z,10.93
2022-09-28T17:31:47.586Z,9.80
2022-09-28T17:34:20.156Z,8.30
2022-09-28T17:36:48.716Z,8.88
2022-09-28T17:39:22.182Z,17.73
2022-09-28T17:41:49.564Z,13.93
2022-09-28T17:44:16.845Z,11.13
2022-09-28T17:46:48.735Z,11.85
2022-09-28T17:49:17.558Z,9.00
2022-09-28T17:51:46.235Z,8.73
2022-09-28T17:54:13.894Z,10.68
2022-09-28T17:56:42.590Z,11.68
2022-09-28T17:59:19.179Z,12.70
2022-09-28T18:01:46.471Z,17.08
2022-09-28T18:04:50.234Z,12.23
2022-09-28T18:07:10.371Z,11.73
2022-09-28T18:09:37.615Z,10.15
2022-09-28T18:12:05.455Z,9.68
2022-09-28T18:14:32.598Z,13.07
2022-09-28T18:16:59.647Z,8.68
2022-09-28T18:19:31.778Z,13.15
2022-09-28T18:21:59.659Z,13.18
2022-09-28T18:24:26.814Z,13.10
2022-09-28T18:26:54.089Z,8.70
2022-09-28T18:29:21.109Z,9.23
2022-09-28T18:31:49.031Z,9.00
2022-09-28T18:34:16.288Z,15.02
2022-09-28T18:36:43.504Z,12.48
2022-09-28T18:39:10.590Z,15.10
2022-09-28T18:41:37.716Z,7.30
2022-09-28T18:44:04.926Z,11.68
2022-09-28T18:46:36.495Z,15.93
2022-09-28T18:49:04.847Z,12.02
2022-09-28T18:51:32.006Z,13.43
2022-09-28T18:54:02.267Z,16.60
2022-09-28T18:56:29.444Z,12.73
2022-09-28T18:58:58.560Z,10.05
2022-09-28T19:01:31.070Z,19.30
2022-09-28T19:04:00.799Z,10.63
2022-09-28T19:06:28.666Z,12.25
2022-09-28T19:08:56.464Z,10.02
2022-09-28T19:11:24.861Z,11.60
2022-09-28T19:13:53.726Z,20.98
2022-09-28T19:16:24.327Z,8.90
2022-09-28T19:18:53.884Z,12.13
2022-09-28T19:21:21.580Z,12.50
2022-09-28T19:23:50.156Z,14.63
2022-09-28T19:26:28.089Z,10.20
2022-09-28T19:28:59.151Z,15.57
2022-09-28T19:31:27.339Z,9.25
2022-09-28T19:33:54.599Z,9.32
2022-09-28T19:36:24.448Z,8.48
2022-09-28T19:38:55.768Z,10.95
2022-09-28T19:41:43.591Z,12.15
2022-09-28T19:44:24.894Z,11.05
2022-09-28T19:47:00.327Z,11.48
2022-09-28T19:49:28.297Z,14.20
2022-09-28T19:52:12.039Z,13.45
2022-09-28T19:54:41.772Z,11.20
2022-09-28T19:57:09.122Z,11.00
2022-09-28T19:59:37.582Z,11.52
2022-09-28T20:02:08.005Z,8.65
2022-09-28T20:04:35.334Z,11.45
2022-09-28T20:07:03.392Z,10.15
2022-09-28T20:09:30.619Z,10.98
2022-09-28T20:11:57.788Z,15.88
2022-09-28T20:14:26.429Z,17.23
2022-09-28T20:16:58.001Z,12.63
2022-09-28T20:19:25.094Z,11.32
2022-09-28T20:21:52.531Z,13.85
2022-09-28T20:24:19.620Z,12.32
2022-09-28T20:26:46.915Z,12.77
2022-09-28T20:29:14.207Z,14.48
2022-09-28T20:31:42.808Z,14.30
2022-09-28T20:34:10.283Z,12.35
2022-09-28T20:36:37.396Z,14.45
2022-09-28T20:39:05.023Z,10.85
2022-09-28T20:41:36.955Z,18.10
2022-09-28T20:44:06.530Z,10.02
2022-09-28T20:46:35.850Z,11.68
2022-09-28T20:49:05.069Z,10.05
2022-09-28T20:51:32.794Z,10.73
2022-09-28T20:54:00.147Z,12.38
2022-09-28T20:56:37.882Z,9.57
2022-09-28T20:59:08.261Z,12.35
2022-09-28T21:01:35.976Z,13.65
2022-09-28T21:04:05.148Z,13.63
2022-09-28T21:06:35.044Z,9.63
2022-09-28T21:09:02.941Z,15.13
2022-09-28T21:11:30.550Z,8.82
2022-09-28T21:14:00.041Z,11.45
2022-09-28T21:16:29.888Z,12.07
2022-09-28T21:18:57.500Z,10.82
2022-09-28T21:21:25.386Z,10.75
2022-09-28T21:23:57.023Z,10.32
2022-09-28T21:26:27.251Z,7.45
2022-09-28T21:28:55.842Z,14.38
2022-09-28T21:31:28.811Z,7.53
2022-09-28T21:33:58.015Z,8.23
2022-09-28T21:36:26.241Z,9.68
2022-09-28T21:38:55.345Z,10.25
2022-09-28T21:41:23.055Z,9.77
2022-09-28T21:43:50.313Z,9.23
2022-09-28T21:46:17.882Z,14.30
2022-09-28T21:48:45.200Z,7.28
2022-09-28T21:51:15.806Z,12.65
2022-09-28T21:53:43.239Z,7.72
2022-09-28T21:56:13.025Z,8.18
2022-09-28T21:58:40.945Z,8.82
2022-09-28T22:01:15.733Z,8.93
2022-09-28T22:03:45.096Z,13.45
2022-09-28T22:06:12.526Z,7.65
2022-09-28T22:08:40.248Z,5.78
2022-09-28T22:11:08.946Z,7.13
2022-09-28T22:13:46.642Z,9.10
2022-09-28T22:16:16.047Z,6.90
2022-09-28T22:18:44.021Z,8.23
2022-09-28T22:21:15.262Z,4.60
2022-09-28T22:23:43.023Z,6.75
2022-09-28T22:26:22.891Z,9.32
2022-09-28T22:28:55.806Z,6.68
2022-09-28T22:31:25.663Z,7.50
2022-09-28T22:33:53.371Z,9.05
2022-09-28T22:36:21.257Z,8.25
2022-09-28T22:38:49.161Z,9.68
2022-09-28T22:41:18.928Z,10.57
2022-09-28T22:43:46.184Z,9.32
2022-09-28T22:46:16.867Z,6.78
2022-09-28T22:48:48.901Z,7.82
2022-09-28T22:51:16.282Z,7.70
2022-09-28T22:53:43.989Z,11.93
2022-09-28T22:56:15.962Z,7.43
2022-09-28T22:58:45.590Z,9.27
2022-09-28T23:01:14.194Z,10.25
2022-09-28T23:03:42.742Z,5.75
2022-09-28T23:06:11.070Z,9.00
2022-09-28T23:08:39.345Z,8.50
2022-09-28T23:11:06.964Z,10.98
2022-09-28T23:13:35.301Z,9.68
2022-09-28T23:16:07.418Z,8.35
2022-09-28T23:18:37.021Z,6.37
2022-09-28T23:21:06.620Z,8.88
2022-09-28T23:23:34.560Z,8.48
2022-09-28T23:26:09.921Z,7.60
2022-09-28T23:28:37.220Z,8.25
2022-09-28T23:31:20.730Z,11.88
2022-09-28T23:33:48.380Z,10.82
2022-09-28T23:36:16.405Z,11.48
2022-09-28T23:38:44.105Z,13.15
2022-09-28T23:41:11.627Z,10.13
2022-09-28T23:43:38.864Z,8.20
2022-09-28T23:46:06.585Z,10.50
2022-09-28T23:48:34.643Z,12.45
2022-09-28T23:51:02.103Z,7.93
2022-09-28T23:53:29.571Z,9.52
2022-09-28T23:55:56.687Z,7.80
2022-09-28T23:58:24.415Z,9.88
